Matamoras, Pennsylvania
Current Conditions -  °F | °C
As of 3:53 AM on Sunday 26 Oct 2014 (Local Time) from KFWN Reporting Station
Few Clouds Few Clouds  
Wind Chill: 54°   Ceiling: Unl
Heat Index: 54°   Visibility: 10mi
Dew Point: 40°   Wind: 5mph
Humidity: 59%   Direction: NA
Pressure: 29.59"   Gusts: NA
Location:  41.37°N, 74.7°W
Report Text: KFWN 260753Z AUTO VRB04KT 10SM FEW055 FEW070 12/04 A2959 RMK AO2 SLP020 T01220044
Loading
Personal Weather Stations






























Interactive Weather Map New forecast layout! Learn more

10-Day Weather Forecast

Advertisements
Track Severe Weather on mobile